Time;durP1;ratioP1;P1;durP2;ratioP2;P2;SDS_P1;SDS_P2;PMS_P1;PMS_P2;Temp;Humidity;BMP_temperature;BMP_pressure;BME280_temperature;BME280_humidity;BME280_pressure;Samples;Min_cycle;Max_cycle;Signal;HPM_P1;HPM_P2
2024/03/06 00:02:04;;;;;;;17.77;11.65;;;5.50;99.90;;;;;;8455224;28;20043;-71
2024/03/06 00:06:06;;;;;;;19.42;12.32;;;5.50;99.90;;;;;;8459208;28;20055;-72
2024/03/06 00:10:08;;;;;;;18.33;11.77;;;5.40;99.90;;;;;;8456570;28;20078;-72
2024/03/06 00:14:12;;;;;;;19.45;11.30;;;5.40;99.90;;;;;;8449350;28;20044;-71
2024/03/06 00:18:14;;;;;;;18.80;11.93;;;5.40;99.90;;;;;;8452684;28;20550;-71
2024/03/06 00:22:16;;;;;;;18.33;12.02;;;5.40;99.90;;;;;;8457661;27;20039;-72
2024/03/06 00:26:22;;;;;;;18.52;11.88;;;5.30;99.90;;;;;;8458690;27;20047;-71
2024/03/06 00:30:24;;;;;;;20.45;12.95;;;5.30;99.90;;;;;;8448136;28;20035;-71
2024/03/06 00:34:27;;;;;;;18.23;11.52;;;5.20;99.90;;;;;;8457669;28;20462;-72
2024/03/06 00:43:51;;;;;;;18.10;11.35;;;5.10;99.90;;;;;;8453813;28;20073;-72
2024/03/06 00:47:53;;;;;;;20.33;11.85;;;5.10;99.90;;;;;;8455960;28;20134;-71
2024/03/06 00:51:55;;;;;;;18.73;12.27;;;5.10;99.90;;;;;;8451371;28;20134;-71
2024/03/06 00:55:57;;;;;;;18.17;11.52;;;5.00;99.90;;;;;;8454178;28;20067;-72
2024/03/06 00:59:59;;;;;;;20.00;12.13;;;5.00;99.90;;;;;;8456025;28;20051;-72
2024/03/06 01:04:00;;;;;;;20.98;12.18;;;5.00;99.90;;;;;;8448132;28;20062;-71
2024/03/06 01:08:02;;;;;;;19.55;13.45;;;5.20;99.90;;;;;;8456646;28;20483;-72
2024/03/06 01:12:05;;;;;;;19.35;12.68;;;5.20;99.90;;;;;;8451479;28;20126;-72
2024/03/06 01:16:07;;;;;;;16.73;10.77;;;5.20;99.90;;;;;;8476258;27;20047;-72
2024/03/06 01:20:09;;;;;;;16.98;11.05;;;5.30;99.90;;;;;;8453423;28;20054;-72
2024/03/06 01:24:11;;;;;;;20.13;12.27;;;5.30;99.90;;;;;;8456696;28;20048;-71
2024/03/06 01:28:12;;;;;;;21.50;12.38;;;5.40;99.90;;;;;;8454813;28;20082;-72
2024/03/06 01:32:14;;;;;;;17.65;11.20;;;5.40;99.90;;;;;;8449242;28;20096;-71
2024/03/06 01:36:22;;;;;;;20.20;11.77;;;5.40;99.90;;;;;;8453748;28;20093;-71
2024/03/06 01:40:24;;;;;;;19.95;11.65;;;5.50;99.90;;;;;;8453002;28;20040;-71
2024/03/06 01:44:26;;;;;;;23.08;13.80;;;5.50;99.90;;;;;;8457418;28;20043;-72
2024/03/06 01:48:29;;;;;;;20.60;13.15;;;5.60;99.90;;;;;;8461379;28;20043;-72
2024/03/06 01:52:31;;;;;;;20.50;11.90;;;5.70;99.90;;;;;;8457589;28;20259;-71
2024/03/06 01:56:35;;;;;;;17.92;11.70;;;5.70;99.90;;;;;;8458279;28;20039;-71
2024/03/06 02:00:37;;;;;;;20.60;11.73;;;5.60;99.90;;;;;;8461297;28;20120;-72
2024/03/06 02:04:39;;;;;;;19.65;10.95;;;5.50;99.90;;;;;;8455548;28;20445;-72
2024/03/06 02:08:41;;;;;;;15.65;10.00;;;5.40;99.90;;;;;;8460465;28;20269;-71
2024/03/06 02:12:43;;;;;;;17.75;10.48;;;5.40;99.90;;;;;;8455609;28;20395;-72
2024/03/06 02:16:45;;;;;;;16.50;10.40;;;5.40;99.90;;;;;;8451813;28;20052;-72
2024/03/06 02:20:48;;;;;;;17.10;10.32;;;5.30;99.90;;;;;;8459292;28;20058;-71
2024/03/06 02:24:50;;;;;;;16.90;9.98;;;5.30;99.90;;;;;;8459631;28;20324;-71
2024/03/06 02:28:55;;;;;;;16.15;10.32;;;5.30;99.90;;;;;;8455866;28;20043;-72
2024/03/06 02:32:58;;;;;;;17.70;11.00;;;5.20;99.90;;;;;;8454702;28;20043;-72
2024/03/06 02:37:00;;;;;;;14.88;9.65;;;5.20;99.90;;;;;;8464234;27;20055;-71
2024/03/06 02:41:02;;;;;;;17.88;10.63;;;5.10;99.90;;;;;;8459444;28;20044;-71
2024/03/06 02:45:07;;;;;;;17.52;10.55;;;5.00;99.90;;;;;;8453639;28;20055;-72
2024/03/06 02:49:09;;;;;;;17.08;10.32;;;5.00;99.90;;;;;;8458897;28;20100;-71
2024/03/06 02:53:10;;;;;;;16.63;9.85;;;5.00;99.90;;;;;;8460140;28;20545;-71
2024/03/06 02:57:12;;;;;;;15.93;9.70;;;4.90;99.90;;;;;;8461010;28;20055;-71
2024/03/06 03:01:14;;;;;;;15.32;9.00;;;4.90;99.90;;;;;;8460436;28;20510;-71
2024/03/06 03:05:16;;;;;;;15.35;9.50;;;4.80;99.90;;;;;;8458206;28;20051;-71
2024/03/06 03:09:18;;;;;;;17.42;9.52;;;4.70;99.90;;;;;;8460621;28;20051;-71
2024/03/06 03:13:21;;;;;;;18.48;10.40;;;4.70;99.90;;;;;;8461465;28;20047;-71
2024/03/06 03:22:27;;;;;;;;;;;4.60;99.90;;;;;;8459505;28;19937;-71
2024/03/06 03:26:29;;;;;;;;;;;4.50;99.90;;;;;;8458452;28;19994;-71
2024/03/06 03:30:32;;;;;;;;;;;4.50;99.90;;;;;;8456084;28;19919;-71
2024/03/06 03:34:36;;;;;;;;;;;4.50;99.90;;;;;;8458377;28;19931;-72
2024/03/06 03:38:40;;;;;;;;;;;4.40;99.90;;;;;;8458913;27;20325;-72
2024/03/06 03:42:43;;;;;;;;;;;4.40;99.90;;;;;;8461631;27;19920;-71
2024/03/06 03:46:45;;;;;;;;;;;4.40;99.90;;;;;;8458231;28;19972;-71
2024/03/06 03:50:47;;;;;;;;;;;4.40;99.90;;;;;;8458115;28;20074;-71
2024/03/06 03:54:48;;;;;;;;;;;4.30;99.90;;;;;;8456222;28;19941;-71
2024/03/06 03:58:50;;;;;;;;;;;4.20;99.90;;;;;;8451795;28;20279;-71
2024/03/06 04:02:52;;;;;;;;;;;4.20;99.90;;;;;;8457693;28;20303;-71
2024/03/06 04:06:53;;;;;;;;;;;4.20;99.90;;;;;;8432889;27;20295;-71
2024/03/06 04:10:55;;;;;;;;;;;4.20;99.90;;;;;;8436996;27;19920;-71
2024/03/06 04:14:57;;;;;;;;;;;4.20;99.90;;;;;;8431975;28;20383;-71
2024/03/06 04:18:59;;;;;;;;;;;4.30;99.90;;;;;;8437912;28;20056;-71
2024/03/06 04:23:01;;;;;;;;;;;4.30;99.90;;;;;;8439526;28;19996;-71
2024/03/06 04:27:02;;;;;;;;;;;4.30;99.90;;;;;;8437189;28;19926;-71
2024/03/06 04:31:04;;;;;;;;;;;4.20;99.90;;;;;;8429221;28;19980;-71
2024/03/06 04:35:07;;;;;;;;;;;4.20;99.90;;;;;;8426675;28;20321;-71
2024/03/06 04:39:09;;;;;;;;;;;4.30;99.90;;;;;;8432912;28;19920;-71
2024/03/06 04:43:11;;;;;;;;;;;4.30;99.90;;;;;;8435642;28;19924;-71
2024/03/06 04:47:13;;;;;;;;;;;4.30;99.90;;;;;;8445895;28;19919;-71
2024/03/06 04:51:15;;;;;;;;;;;4.30;99.90;;;;;;8452120;27;19923;-71
2024/03/06 04:55:22;;;;;;;;;;;4.30;99.90;;;;;;8445465;27;19965;-71
2024/03/06 04:59:24;;;;;;;;;;;4.30;99.90;;;;;;8447769;27;19920;-71
2024/03/06 05:03:26;;;;;;;;;;;4.30;99.90;;;;;;8442140;28;20059;-71
2024/03/06 05:07:45;;;;;;;;;;;4.30;99.90;;;;;;8435667;28;19935;-71
2024/03/06 05:12:05;;;;;;;;;;;4.20;99.90;;;;;;8434885;28;19956;-71
2024/03/06 05:16:24;;;;;;;;;;;4.10;99.90;;;;;;8435290;28;20266;-72
2024/03/06 05:21:08;;;;;;;;;;;4.10;99.90;;;;;;8435587;28;19952;-71
2024/03/06 05:25:49;;;;;;;;;;;4.00;99.90;;;;;;8452101;27;19923;-71
2024/03/06 05:35:12;;;;;;;;;;;4.00;99.90;;;;;;8433928;28;20374;-71
2024/03/06 05:39:38;;;;;;;;;;;4.00;99.90;;;;;;8433373;28;19921;-71
2024/03/06 05:49:01;;;;;;;;;;;4.00;99.90;;;;;;8441701;28;19950;-71
2024/03/06 05:53:20;;;;;;;;;;;4.10;99.90;;;;;;8440359;28;19915;-71
2024/03/06 05:57:45;;;;;;;;;;;4.10;99.90;;;;;;8442514;28;19914;-71
2024/03/06 06:02:04;;;;;;;;;;;4.20;99.90;;;;;;8449680;28;20394;-71
2024/03/06 06:06:06;;;;;;;;;;;4.20;99.90;;;;;;8452094;28;19935;-71
2024/03/06 06:10:09;;;;;;;;;;;4.30;99.90;;;;;;8453771;28;19959;-71
2024/03/06 06:14:12;;;;;;;;;;;4.30;99.90;;;;;;8448062;28;19977;-71
2024/03/06 06:18:13;;;;;;;;;;;4.30;99.90;;;;;;8451370;28;19961;-71
2024/03/06 06:22:15;;;;;;;;;;;4.30;99.90;;;;;;8443938;28;20319;-71
2024/03/06 06:26:17;;;;;;;;;;;4.30;99.90;;;;;;8437030;28;19920;-71
2024/03/06 06:30:19;;;;;;;;;;;4.30;99.90;;;;;;8441886;28;19928;-71
2024/03/06 06:34:21;;;;;;;;;;;4.30;99.90;;;;;;8444168;28;20329;-71
2024/03/06 06:38:22;;;;;;;;;;;4.40;99.90;;;;;;8439563;28;19920;-71
2024/03/06 06:42:24;;;;;;;;;;;4.40;99.90;;;;;;8439652;28;19919;-71
2024/03/06 06:46:26;;;;;;;;;;;4.40;99.90;;;;;;8437729;28;20371;-71
2024/03/06 06:50:28;;;;;;;;;;;4.40;99.90;;;;;;8440918;28;20328;-71
2024/03/06 06:54:30;;;;;;;;;;;4.50;99.90;;;;;;8444250;27;19949;-71
2024/03/06 06:58:31;;;;;;;;;;;4.50;99.90;;;;;;8445630;28;19926;-71
2024/03/06 07:02:33;;;;;;;31.75;12.27;;;4.60;99.90;;;;;;8453521;28;20314;-71
2024/03/06 07:06:35;;;;;;;25.85;13.13;;;4.60;99.90;;;;;;8459702;28;20050;-71
2024/03/06 07:10:37;;;;;;;26.98;12.68;;;4.70;99.90;;;;;;8455132;28;20048;-71
2024/03/06 07:14:39;;;;;;;29.00;13.15;;;4.80;99.90;;;;;;8449138;28;20110;-71
2024/03/06 07:18:40;;;;;;;;;;;4.80;99.90;;;;;;8457497;28;20091;-71
2024/03/06 07:22:42;;;;;;;;;;;4.90;99.90;;;;;;8456075;28;19920;-71
2024/03/06 07:26:44;;;;;;;;;;;4.90;99.90;;;;;;8456245;28;19919;-71
2024/03/06 07:30:46;;;;;;;26.67;14.02;;;5.00;99.90;;;;;;8453053;28;20146;-71
2024/03/06 07:39:45;;;;;;;;;;;5.20;99.90;;;;;;8455830;28;20043;-71
2024/03/06 07:43:48;;;;;;;;;;;5.20;99.90;;;;;;8456496;28;19920;-71
2024/03/06 07:47:52;;;;;;;;;;;5.30;99.90;;;;;;8448540;28;20498;-71
2024/03/06 07:51:54;;;;;;;;;;;5.30;99.90;;;;;;8457644;28;19920;-71
2024/03/06 07:55:56;;;;;;;;;;;5.30;99.90;;;;;;8455132;27;19927;-71
2024/03/06 07:59:58;;;;;;;32.17;15.60;;;5.40;99.90;;;;;;8455129;28;20359;-71
2024/03/06 08:04:00;;;;;;;27.95;15.30;;;5.50;99.90;;;;;;8458144;28;20090;-71
2024/03/06 08:08:03;;;;;;;30.40;14.57;;;5.50;99.90;;;;;;8450442;28;20048;-71
2024/03/06 08:12:05;;;;;;;;;;;5.60;99.90;;;;;;8447974;28;20058;-71
2024/03/06 08:16:07;;;;;;;;;;;5.70;99.90;;;;;;8453716;28;19919;-71
2024/03/06 08:20:09;;;;;;;;;;;5.80;99.90;;;;;;8448560;28;19946;-71
2024/03/06 08:24:11;;;;;;;;;;;5.90;99.90;;;;;;8456711;28;19977;-71
2024/03/06 08:28:13;;;;;;;;;;;6.00;99.90;;;;;;8458867;27;19924;-71
2024/03/06 08:32:14;;;;;;;;;;;6.20;99.90;;;;;;8444743;28;19927;-71
2024/03/06 08:36:55;;;;;;;;;;;6.30;99.90;;;;;;8459130;27;19924;-71
2024/03/06 08:40:56;;;;;;;;;;;6.40;99.90;;;;;;8451713;28;19919;-71
2024/03/06 08:44:58;;;;;;;;;;;6.50;99.90;;;;;;8450749;28;20044;-71
2024/03/06 08:49:01;;;;;;;;;;;6.60;99.90;;;;;;8453937;28;20849;-71
2024/03/06 08:53:09;;;;;;;;;;;6.60;99.90;;;;;;8441855;28;19951;-71
2024/03/06 08:57:11;;;;;;;;;;;6.60;99.90;;;;;;8449786;28;19920;-71
2024/03/06 09:01:13;;;;;;;;;;;6.70;99.90;;;;;;8447547;28;19973;-71
2024/03/06 09:05:14;;;;;;;;;;;6.70;99.90;;;;;;8450890;28;19926;-72
2024/03/06 09:09:16;;;;;;;;;;;6.80;99.90;;;;;;8457252;28;20003;-71
2024/03/06 09:13:18;;;;;;;;;;;6.90;99.90;;;;;;8445664;28;19927;-71
2024/03/06 09:17:20;;;;;;;;;;;7.00;99.90;;;;;;8446030;28;19954;-71
2024/03/06 09:21:22;;;;;;;;;;;7.10;99.90;;;;;;8462868;28;19988;-71
2024/03/06 09:25:23;;;;;;;;;;;7.10;99.90;;;;;;8435637;28;20036;-72
2024/03/06 09:29:29;;;;;;;;;;;7.10;99.90;;;;;;8454853;28;19919;-71
2024/03/06 09:33:31;;;;;;;;;;;7.10;99.90;;;;;;8450079;28;19919;-71
2024/03/06 09:37:32;;;;;;;;;;;7.20;99.90;;;;;;8447330;28;19920;-71
2024/03/06 09:41:34;;;;;;;;;;;7.20;99.90;;;;;;8453731;28;19919;-71
2024/03/06 09:45:36;;;;;;;;;;;7.30;99.90;;;;;;8442709;28;20387;-71
2024/03/06 09:49:38;;;;;;;;;;;7.30;99.90;;;;;;8421895;28;19973;-71
2024/03/06 09:53:40;;;;;;;;;;;7.40;99.90;;;;;;8452587;27;19963;-72
2024/03/06 09:57:43;;;;;;;;;;;7.50;99.90;;;;;;8426572;28;20260;-71
2024/03/06 10:01:44;;;;;;;;;;;7.60;99.90;;;;;;8432856;28;20276;-71
2024/03/06 10:05:46;;;;;;;;;;;7.70;99.90;;;;;;8426382;28;19924;-71
2024/03/06 10:09:48;;;;;;;;;;;7.80;99.90;;;;;;8438916;28;20179;-71
2024/03/06 10:13:52;;;;;;;;;;;8.00;99.90;;;;;;8427958;28;20343;-71
2024/03/06 10:18:13;;;;;;;;;;;7.90;99.90;;;;;;8427088;28;19924;-71
2024/03/06 10:22:15;;;;;;;;;;;8.00;99.90;;;;;;8425732;28;19964;-71
2024/03/06 10:26:17;;;;;;;;;;;8.00;99.90;;;;;;8428599;28;20428;-71
2024/03/06 10:30:18;;;;;;;;;;;8.10;99.90;;;;;;8427320;28;19920;-71
2024/03/06 10:34:21;;;;;;;;;;;8.30;99.90;;;;;;8428986;28;20395;-71
2024/03/06 10:38:23;;;;;;;;;;;8.40;99.90;;;;;;8429818;28;19939;-71
2024/03/06 10:42:27;;;;;;;;;;;8.50;99.90;;;;;;8431865;27;19951;-71
2024/03/06 10:46:29;;;;;;;;;;;8.60;99.90;;;;;;8433780;28;19943;-71
2024/03/06 10:50:31;;;;;;;;;;;8.80;99.90;;;;;;8423292;27;19928;-71
2024/03/06 10:54:34;;;;;;;;;;;8.90;99.90;;;;;;8429728;28;19965;-71
2024/03/06 10:58:36;;;;;;;;;;;8.90;99.90;;;;;;8440589;28;19920;-72
2024/03/06 11:02:38;;;;;;;;;;;9.10;99.90;;;;;;8438983;27;19927;-71
2024/03/06 11:06:40;;;;;;;;;;;9.40;99.90;;;;;;8436922;28;20469;-71
2024/03/06 11:10:42;;;;;;;;;;;9.50;99.90;;;;;;8433381;28;20295;-71
2024/03/06 11:14:44;;;;;;;;;;;9.80;99.90;;;;;;8427670;27;19974;-71
2024/03/06 11:18:46;;;;;;;;;;;10.40;99.90;;;;;;8424864;28;19923;-71
2024/03/06 11:22:57;;;;;;;;;;;10.60;99.90;;;;;;8459257;27;19928;-71
2024/03/06 11:27:01;;;;;;;;;;;10.90;99.90;;;;;;8426212;28;20378;-71
2024/03/06 11:31:04;;;;;;;;;;;11.20;99.90;;;;;;8422799;28;19923;-71
2024/03/06 11:35:08;;;;;;;;;;;11.50;99.90;;;;;;8425439;27;19928;-72
2024/03/06 11:39:10;;;;;;;;;;;12.00;99.90;;;;;;8424698;28;20007;-71
2024/03/06 11:43:23;;;;;;;;;;;12.10;99.90;;;;;;8425369;28;20287;-71
2024/03/06 11:47:25;;;;;;;;;;;12.50;99.90;;;;;;8428213;27;19920;-71
2024/03/06 11:51:27;;;;;;;;;;;13.30;99.90;;;;;;8438577;28;19930;-72
2024/03/06 11:55:30;;;;;;;;;;;14.10;99.90;;;;;;8426035;28;19920;-72
2024/03/06 11:59:32;;;;;;;;;;;15.00;99.90;;;;;;8428955;28;20353;-72
2024/03/06 12:03:35;;;;;;;;;;;15.30;99.90;;;;;;8429492;28;19920;-72
2024/03/06 12:07:46;;;;;;;;;;;15.60;99.90;;;;;;8424994;28;19924;-72
2024/03/06 12:11:48;;;;;;;;;;;16.30;99.90;;;;;;8425117;28;20083;-72
2024/03/06 12:15:50;;;;;;;;;;;16.80;99.90;;;;;;8423242;28;19969;-72
2024/03/06 12:19:54;;;;;;;;;;;17.40;99.90;;;;;;8421480;28;19928;-72
2024/03/06 12:24:06;;;;;;;;;;;17.80;99.90;;;;;;8428243;28;19923;-72
2024/03/06 12:28:09;;;;;;;;;;;18.00;99.90;;;;;;8426189;28;19927;-72
2024/03/06 12:32:17;;;;;;;;;;;18.40;99.90;;;;;;8426320;28;20460;-72
2024/03/06 12:36:25;;;;;;;;;;;18.60;99.90;;;;;;8426095;28;19977;-72
2024/03/06 12:40:28;;;;;;;;;;;18.30;99.90;;;;;;8424500;27;20294;-72
2024/03/06 12:44:29;;;;;;;;;;;17.90;99.90;;;;;;8431916;28;19926;-72
2024/03/06 12:48:32;;;;;;;;;;;17.60;99.90;;;;;;8430590;27;19923;-72
2024/03/06 12:52:35;;;;;;;;;;;17.50;99.90;;;;;;8422819;28;19927;-72
2024/03/06 12:56:36;;;;;;;;;;;17.80;99.90;;;;;;8428109;28;19920;-72
2024/03/06 13:00:38;;;;;;;;;;;18.20;99.90;;;;;;8425968;28;19920;-72
2024/03/06 13:04:40;;;;;;;;;;;18.30;99.90;;;;;;8422853;28;19924;-72
2024/03/06 13:08:42;;;;;;;;;;;18.20;99.90;;;;;;8427705;28;20299;-72
2024/03/06 13:12:43;;;;;;;;;;;17.80;99.90;;;;;;8427606;28;19920;-72
2024/03/06 13:16:45;;;;;;;;;;;17.30;99.90;;;;;;8425785;28;19932;-72
2024/03/06 13:20:47;;;;;;;;;;;16.90;99.90;;;;;;8421104;28;19927;-72
2024/03/06 13:24:49;;;;;;;;;;;16.50;99.90;;;;;;8421418;28;20295;-72
2024/03/06 13:28:51;;;;;;;;;;;16.20;99.90;;;;;;8426225;28;20429;-71
2024/03/06 13:32:54;;;;;;;;;;;16.10;99.90;;;;;;8429202;28;19975;-71
2024/03/06 13:36:55;;;;;;;;;;;15.90;99.90;;;;;;8423328;28;19959;-72
2024/03/06 13:40:57;;;;;;;;;;;15.90;99.90;;;;;;8426209;28;20006;-72
2024/03/06 13:44:59;;;;;;;;;;;15.80;99.90;;;;;;8426377;28;19927;-73
2024/03/06 13:49:01;;;;;;;;;;;15.70;99.90;;;;;;8427050;28;19931;-72
2024/03/06 13:53:03;;;;;;;;;;;15.50;99.90;;;;;;8429639;28;19959;-72
2024/03/06 13:57:05;;;;;;;;;;;15.40;99.90;;;;;;8438857;28;20382;-72
2024/03/06 14:01:07;;;;;;;;;;;15.50;99.90;;;;;;8429749;27;19924;-72
2024/03/06 14:05:08;;;;;;;;;;;15.60;99.90;;;;;;8430336;28;19923;-72
2024/03/06 14:09:10;;;;;;;;;;;15.70;99.90;;;;;;8432877;28;19920;-72
2024/03/06 14:13:12;;;;;;;;;;;15.70;99.90;;;;;;8434625;28;20267;-72
2024/03/06 14:17:14;;;;;;;;;;;15.60;99.90;;;;;;8426376;28;19947;-72
2024/03/06 14:21:15;;;;;;;;;;;15.60;99.90;;;;;;8428422;28;21730;-71
2024/03/06 14:25:17;;;;;;;;;;;15.60;99.90;;;;;;8431854;28;19987;-72
2024/03/06 14:29:19;;;;;;;;;;;15.60;99.90;;;;;;8428507;28;19967;-72
2024/03/06 14:33:21;;;;;;;;;;;15.90;99.90;;;;;;8427167;28;20014;-72
2024/03/06 14:37:22;;;;;;;;;;;16.70;99.90;;;;;;8428020;28;20398;-72
2024/03/06 14:41:24;;;;;;;;;;;18.20;99.90;;;;;;8426502;28;20359;-72
2024/03/06 14:45:26;;;;;;;;;;;19.10;99.90;;;;;;8430977;28;19923;-73
2024/03/06 14:49:27;;;;;;;;;;;20.20;99.90;;;;;;8429710;28;20340;-73
2024/03/06 14:53:29;;;;;;;;;;;21.00;99.90;;;;;;8424167;28;20504;-73
2024/03/06 14:57:31;;;;;;;;;;;20.90;99.90;;;;;;8429041;28;19926;-73
2024/03/06 15:01:37;;;;;;;;;;;21.00;99.90;;;;;;8424034;28;19920;-72
2024/03/06 15:05:39;;;;;;;;;;;21.20;99.90;;;;;;8428377;27;19973;-72
2024/03/06 15:09:40;;;;;;;;;;;21.50;99.90;;;;;;8424928;28;19930;-73
2024/03/06 15:13:42;;;;;;;;;;;21.90;99.90;;;;;;8427263;27;19930;-73
2024/03/06 15:17:46;;;;;;;;;;;22.10;99.90;;;;;;8426175;28;19927;-72
2024/03/06 15:21:48;;;;;;;;;;;22.30;99.90;;;;;;8432230;28;20378;-72
2024/03/06 15:25:49;;;;;;;;;;;22.40;99.90;;;;;;8437208;28;19930;-72
2024/03/06 15:29:51;;;;;;;;;;;22.40;99.90;;;;;;8429367;28;19920;-72
2024/03/06 15:33:53;;;;;;;;;;;22.10;99.90;;;;;;8429479;28;19969;-72
2024/03/06 15:37:55;;;;;;;;;;;22.00;99.90;;;;;;8428786;28;20314;-72
2024/03/06 15:41:57;;;;;;;;;;;22.00;99.90;;;;;;8426276;28;19950;-72
2024/03/06 15:45:59;;;;;;;;;;;21.70;99.90;;;;;;8423728;28;19920;-73
2024/03/06 15:50:01;;;;;;;;;;;21.60;99.90;;;;;;8429207;28;19931;-73
2024/03/06 15:54:03;;;;;;;;;;;21.60;99.90;;;;;;8430702;27;19927;-72
2024/03/06 15:58:05;;;;;;;;;;;21.50;99.90;;;;;;8430597;28;19931;-72
2024/03/06 16:02:07;;;;;;;;;;;21.70;99.90;;;;;;8421129;27;19920;-72
2024/03/06 16:06:30;;;;;;;;;;;21.70;99.90;;;;;;8430202;28;19934;-73
2024/03/06 16:10:37;;;;;;;;;;;21.30;99.90;;;;;;8429217;28;19920;-72
2024/03/06 16:14:39;;;;;;;;;;;20.80;99.90;;;;;;8428643;28;19928;-72
2024/03/06 16:18:41;;;;;;;;;;;20.30;99.90;;;;;;8425055;27;19920;-72
2024/03/06 16:22:43;;;;;;;;;;;19.90;99.90;;;;;;8428117;28;20407;-73
2024/03/06 16:26:44;;;;;;;;;;;19.60;99.90;;;;;;8424916;28;19920;-72
2024/03/06 16:30:46;;;;;;;;;;;19.40;99.90;;;;;;8437937;27;20414;-72
2024/03/06 16:34:48;;;;;;;;;;;19.40;99.90;;;;;;8436889;27;19981;-72
2024/03/06 16:38:50;;;;;;;;;;;19.30;99.90;;;;;;8437309;27;19938;-72
2024/03/06 16:42:51;;;;;;;;;;;19.00;99.90;;;;;;8422387;28;19931;-72
2024/03/06 16:46:53;;;;;;;;;;;18.60;99.90;;;;;;8428209;28;19924;-72
2024/03/06 16:50:55;;;;;;;;;;;18.20;99.90;;;;;;8437428;28;19920;-72
2024/03/06 16:54:57;;;;;;;;;;;17.90;99.90;;;;;;8425956;27;20367;-72
2024/03/06 16:58:58;;;;;;;;;;;17.50;99.90;;;;;;8421211;28;19939;-72
2024/03/06 17:03:01;;;;;;;;;;;17.20;99.90;;;;;;8424569;27;19924;-72
2024/03/06 17:07:09;;;;;;;;;;;16.80;99.90;;;;;;8429186;28;19934;-72
2024/03/06 17:11:11;;;;;;;;;;;16.50;99.90;;;;;;8422055;28;19920;-72
2024/03/06 17:15:13;;;;;;;;;;;16.20;99.90;;;;;;8428891;28;19935;-72
2024/03/06 17:19:15;;;;;;;;;;;15.90;99.90;;;;;;8429560;28;19920;-72
2024/03/06 17:23:17;;;;;;;;;;;15.60;99.90;;;;;;8423484;28;20531;-72
2024/03/06 17:27:19;;;;;;;;;;;15.20;99.90;;;;;;8430772;28;19926;-72
2024/03/06 17:31:20;;;;;;;;;;;14.90;99.90;;;;;;8431112;28;19994;-72
2024/03/06 17:35:22;;;;;;;;;;;14.60;99.90;;;;;;8433084;28;19939;-72
2024/03/06 17:39:48;;;;;;;;;;;14.40;99.90;;;;;;8424799;28;19978;-72
2024/03/06 17:43:50;;;;;;;;;;;14.10;99.90;;;;;;8433309;28;19919;-72
2024/03/06 17:47:52;;;;;;;;;;;13.90;99.90;;;;;;8428519;28;19924;-72
2024/03/06 17:51:54;;;;;;;;;;;13.60;99.90;;;;;;8431580;28;19950;-72
2024/03/06 17:55:56;;;;;;;;;;;13.40;99.90;;;;;;8432966;28;19928;-72
2024/03/06 17:59:58;;;;;;;;;;;13.30;99.90;;;;;;8434145;28;19935;-72
2024/03/06 18:04:00;;;;;;;;;;;13.10;99.90;;;;;;8436701;28;19924;-72
2024/03/06 18:08:02;;;;;;;;;;;12.90;99.90;;;;;;8430064;28;20442;-72
2024/03/06 18:12:04;;;;;;;;;;;12.80;99.90;;;;;;8427970;28;19939;-72
2024/03/06 18:16:06;;;;;;;;;;;12.70;99.90;;;;;;8432424;28;20379;-72
2024/03/06 18:20:11;;;;;;;;;;;12.60;99.90;;;;;;8433427;28;19946;-72
2024/03/06 18:24:14;;;;;;;;;;;12.50;99.90;;;;;;8428519;28;19920;-72
2024/03/06 18:28:17;;;;;;;;;;;12.40;99.90;;;;;;8465365;27;19944;-72
2024/03/06 18:32:19;;;;;;;;;;;12.30;99.90;;;;;;8432433;28;19924;-72
2024/03/06 18:36:21;;;;;;;;;;;12.20;99.90;;;;;;8431797;28;20395;-72
2024/03/06 18:40:23;;;;;;;;;;;12.20;99.90;;;;;;8427886;28;19920;-72
2024/03/06 18:44:25;;;;;;;;;;;12.10;99.90;;;;;;8433098;28;19920;-72
2024/03/06 18:48:27;;;;;;;;;;;12.00;99.90;;;;;;8430472;27;21095;-72
2024/03/06 18:57:33;;;;;;;;;;;11.80;99.90;;;;;;8428692;28;19972;-72
2024/03/06 19:02:03;;;;;;;;;;;11.70;99.90;;;;;;8426522;28;19973;-72
2024/03/06 19:06:06;;;;;;;;;;;11.60;99.90;;;;;;8440604;28;19971;-72
2024/03/06 19:10:10;;;;;;;;;;;11.50;99.90;;;;;;8430829;28;20379;-72
2024/03/06 19:14:12;;;;;;;;;;;11.40;99.90;;;;;;8440926;28;19930;-72
2024/03/06 19:18:14;;;;;;;;;;;11.30;99.90;;;;;;8436021;28;20370;-72
2024/03/06 19:22:16;;;;;;;;;;;11.10;99.90;;;;;;8441419;28;20018;-72
2024/03/06 19:26:17;;;;;;;;;;;11.00;99.90;;;;;;8429774;28;19931;-72
2024/03/06 19:30:19;;;;;;;;;;;10.90;99.90;;;;;;8432474;28;19974;-72
2024/03/06 19:34:21;;;;;;;;;;;10.80;99.90;;;;;;8429759;28;20371;-72
2024/03/06 19:38:24;;;;;;;;;;;10.80;99.90;;;;;;8435172;28;19924;-72
2024/03/06 19:42:26;;;;;;;;;;;10.80;99.90;;;;;;8433587;28;20046;-72
2024/03/06 19:46:28;;;;;;;;;;;10.70;99.90;;;;;;8435291;28;19935;-72
2024/03/06 19:50:30;;;;;;;;;;;10.60;99.90;;;;;;8432857;28;20477;-71
2024/03/06 19:54:32;;;;;;;;;;;10.40;99.90;;;;;;8432362;28;19930;-72
2024/03/06 19:58:33;;;;;;;;;;;10.30;99.90;;;;;;8429708;28;19927;-72
2024/03/06 20:02:35;;;;;;;;;;;10.30;99.90;;;;;;8427733;27;20390;-72
2024/03/06 20:06:37;;;;;;;;;;;10.20;99.90;;;;;;8425004;27;19936;-72
2024/03/06 20:15:44;;;;;;;;;;;10.10;99.90;;;;;;8426637;28;19939;-72
2024/03/06 20:19:49;;;;;;;;;;;10.00;99.90;;;;;;8420900;28;20663;-72
2024/03/06 20:23:51;;;;;;;;;;;10.00;99.90;;;;;;8427217;28;20383;-72
2024/03/06 20:27:53;;;;;;;;;;;9.90;99.90;;;;;;8423256;28;20014;-72
2024/03/06 20:31:55;;;;;;;;;;;9.90;99.90;;;;;;8422593;28;19989;-72
2024/03/06 20:35:56;;;;;;;;;;;9.80;99.90;;;;;;8425539;28;19962;-72
2024/03/06 20:39:58;;;;;;;;;;;9.70;99.90;;;;;;8422011;28;20386;-72
2024/03/06 20:44:00;;;;;;;;;;;9.60;99.90;;;;;;8426774;27;20439;-72
2024/03/06 20:48:02;;;;;;;;;;;9.60;99.90;;;;;;8422824;27;19972;-72
2024/03/06 20:52:06;;;;;;;;;;;9.50;99.90;;;;;;8437450;28;19924;-72
2024/03/06 20:56:08;;;;;;;;;;;9.40;99.90;;;;;;8426594;28;19928;-72
2024/03/06 21:00:13;;;;;;;;;;;9.40;99.90;;;;;;8423600;28;19924;-72
2024/03/06 21:04:15;;;;;;;;;;;9.30;99.90;;;;;;8425991;28;19974;-71
2024/03/06 21:08:17;;;;;;;;;;;9.20;99.90;;;;;;8429703;28;19920;-72
2024/03/06 21:12:20;;;;;;;;;;;9.20;99.90;;;;;;8420969;28;20359;-72
2024/03/06 21:16:22;;;;;;;;;;;9.10;99.90;;;;;;8422177;28;19967;-72
2024/03/06 21:20:24;;;;;;;;;;;9.10;99.90;;;;;;8425467;28;19924;-72
2024/03/06 21:24:26;;;;;;;;;;;9.10;99.90;;;;;;8428963;28;20370;-72
2024/03/06 21:28:28;;;;;;;;;;;9.10;99.90;;;;;;8424158;28;19924;-72
2024/03/06 21:32:30;;;;;;;;;;;9.10;99.90;;;;;;8454083;27;19919;-72
2024/03/06 21:36:31;;;;;;;;;;;9.00;99.90;;;;;;8425226;28;19924;-72
2024/03/06 21:40:33;;;;;;;;;;;8.90;99.90;;;;;;8435884;28;19973;-72
2024/03/06 21:44:35;;;;;;;;;;;8.90;99.90;;;;;;8426220;28;19973;-72
2024/03/06 21:53:40;;;;;;;;;;;8.70;99.90;;;;;;8418271;28;19962;-72
2024/03/06 21:57:42;;;;;;;;;;;8.60;99.90;;;;;;8430199;28;20355;-72
2024/03/06 22:01:44;;;;;;;;;;;8.60;99.90;;;;;;8441339;28;19973;-72
2024/03/06 22:05:45;;;;;;;;;;;8.50;99.90;;;;;;8463068;28;19970;-72
2024/03/06 22:09:47;;;;;;;;;;;8.40;99.90;;;;;;8458923;28;20195;-72
2024/03/06 22:13:49;;;;;;;;;;;8.30;99.90;;;;;;8462421;28;19923;-72
2024/03/06 22:17:52;;;;;;;;;;;8.20;99.90;;;;;;8446280;28;19919;-72
2024/03/06 22:21:53;;;;;;;;;;;8.10;99.90;;;;;;8458954;28;20306;-72
2024/03/06 22:25:55;;;;;;;;;;;8.00;99.90;;;;;;8456897;28;19981;-71
2024/03/06 22:29:57;;;;;;;;;;;8.00;99.90;;;;;;8453123;28;19927;-72
2024/03/06 22:33:59;;;;;;;;;;;7.90;99.90;;;;;;8461631;28;19930;-72
2024/03/06 22:38:01;;;;;;;;;;;7.80;99.90;;;;;;8460814;28;19945;-72
2024/03/06 22:42:03;;;;;;;;;;;7.80;99.90;;;;;;8461942;28;19919;-72
2024/03/06 22:46:05;;;;;;;;;;;7.70;99.90;;;;;;8460923;28;19927;-73
2024/03/06 22:50:09;;;;;;;;;;;7.60;99.90;;;;;;8447740;28;19920;-72
2024/03/06 22:54:11;;;;;;;;;;;7.50;99.90;;;;;;8456967;28;19919;-72
2024/03/06 22:58:12;;;;;;;;;;;7.40;99.90;;;;;;8461006;27;19923;-72
2024/03/06 23:02:17;;;;;;;;;;;7.40;99.90;;;;;;8460047;28;19973;-72
2024/03/06 23:06:20;;;;;;;;;;;7.40;99.90;;;;;;8460828;28;19930;-72
2024/03/06 23:10:22;;;;;;;;;;;7.30;99.90;;;;;;8457147;28;19931;-72
2024/03/06 23:14:23;;;;;;;;;;;7.30;99.90;;;;;;8444697;28;19927;-72
2024/03/06 23:18:25;;;;;;;;;;;7.30;99.90;;;;;;8454515;27;19923;-72
2024/03/06 23:22:27;;;;;;;;;;;7.30;99.90;;;;;;8454225;28;19919;-72
2024/03/06 23:26:28;;;;;;;;;;;7.20;99.90;;;;;;8456952;28;19934;-72
2024/03/06 23:30:31;;;;;;;;;;;7.20;99.90;;;;;;8445834;28;20290;-72
2024/03/06 23:39:37;;;;;;;;;;;6.90;99.90;;;;;;8457845;28;20606;-72
2024/03/06 23:43:39;;;;;;;;;;;6.80;99.90;;;;;;8458624;28;20367;-72
2024/03/06 23:47:41;;;;;;;;;;;6.70;99.90;;;;;;8446534;27;19924;-72
2024/03/06 23:51:48;;;;;;;;;;;6.60;99.90;;;;;;8444378;28;19920;-72
2024/03/06 23:55:50;;;;;;;;;;;6.60;99.90;;;;;;8453462;28;19977;-71
2024/03/06 23:59:52;;;;;;;;;;;6.60;99.90;;;;;;8438832;28;20363;-71
